createdAt,value
2023-05-03T00:02:11.431Z,12.55
2023-05-03T00:04:41.483Z,12.46
2023-05-03T00:07:14.345Z,12.34
2023-05-03T00:09:44.270Z,12.45
2023-05-03T00:12:16.212Z,12.51
2023-05-03T00:14:48.110Z,12.55
2023-05-03T00:17:17.692Z,12.50
2023-05-03T00:19:44.740Z,12.48
2023-05-03T00:22:18.365Z,12.63
2023-05-03T00:24:51.356Z,12.51
2023-05-03T00:27:21.357Z,12.34
2023-05-03T00:29:48.828Z,12.20
2023-05-03T00:32:19.661Z,12.22
2023-05-03T00:34:53.893Z,12.14
2023-05-03T00:37:21.061Z,12.10
2023-05-03T00:39:50.814Z,12.11
2023-05-03T00:42:18.965Z,12.02
2023-05-03T00:44:46.029Z,11.97
2023-05-03T00:47:14.392Z,11.94
2023-05-03T00:49:41.513Z,12.04
2023-05-03T00:52:08.621Z,11.96
2023-05-03T00:54:36.072Z,11.98
2023-05-03T00:57:03.467Z,11.98
2023-05-03T00:59:30.594Z,11.82
2023-05-03T01:01:59.616Z,11.80
2023-05-03T01:04:27.443Z,11.97
2023-05-03T01:06:54.482Z,11.85
2023-05-03T01:09:24.095Z,11.82
2023-05-03T01:11:51.253Z,11.83
2023-05-03T01:14:18.101Z,11.76
2023-05-03T01:16:45.127Z,11.76
2023-05-03T01:19:12.155Z,11.84
2023-05-03T01:21:39.036Z,11.84
2023-05-03T01:24:05.974Z,11.79
2023-05-03T01:26:34.662Z,11.89
2023-05-03T01:29:06.407Z,11.72
2023-05-03T01:31:33.857Z,11.68
2023-05-03T01:34:01.263Z,11.71
2023-05-03T01:36:34.700Z,11.60
2023-05-03T01:39:05.201Z,11.40
2023-05-03T01:41:32.975Z,11.26
2023-05-03T01:44:02.346Z,11.19
2023-05-03T01:46:29.023Z,11.05
2023-05-03T01:48:58.915Z,11.11
2023-05-03T01:51:25.873Z,11.13
2023-05-03T01:53:55.813Z,11.07
2023-05-03T01:56:22.607Z,11.04
2023-05-03T01:58:52.337Z,11.14
2023-05-03T02:01:19.149Z,11.04
2023-05-03T02:03:46.223Z,11.06
2023-05-03T02:06:13.952Z,11.09
2023-05-03T02:08:40.845Z,11.04
2023-05-03T02:11:07.853Z,11.04
2023-05-03T02:13:36.231Z,11.10
2023-05-03T02:16:05.703Z,11.07
2023-05-03T02:18:34.280Z,11.16
2023-05-03T02:21:02.272Z,11.08
2023-05-03T02:23:31.851Z,10.93
2023-05-03T02:26:00.196Z,10.76
2023-05-03T02:28:33.790Z,10.73
2023-05-03T02:31:00.778Z,10.62
2023-05-03T02:33:27.661Z,10.48
2023-05-03T02:35:57.453Z,10.47
2023-05-03T02:38:27.199Z,10.60
2023-05-03T02:40:54.122Z,10.51
2023-05-03T02:43:21.629Z,10.53
2023-05-03T02:45:51.358Z,10.50
2023-05-03T02:48:20.543Z,10.59
2023-05-03T02:50:47.633Z,10.64
2023-05-03T02:53:14.598Z,10.58
2023-05-03T02:55:41.536Z,10.57
2023-05-03T02:58:08.552Z,10.53
2023-05-03T03:00:37.958Z,10.65
2023-05-03T03:03:05.034Z,10.67
2023-05-03T03:05:32.162Z,10.74
2023-05-03T03:08:02.622Z,10.71
2023-05-03T03:10:34.267Z,10.66
2023-05-03T03:13:01.248Z,10.75
2023-05-03T03:15:28.288Z,10.67
2023-05-03T03:18:03.097Z,10.79
2023-05-03T03:20:30.027Z,10.78
2023-05-03T03:23:04.106Z,10.85
2023-05-03T03:25:31.073Z,10.82
2023-05-03T03:28:00.954Z,10.98
2023-05-03T03:30:28.992Z,10.88
2023-05-03T03:33:03.168Z,11.04
2023-05-03T03:35:30.401Z,10.91
2023-05-03T03:38:04.217Z,10.78
2023-05-03T03:40:31.704Z,10.96
2023-05-03T03:42:58.875Z,11.05
2023-05-03T03:45:28.293Z,11.62
2023-05-03T03:47:55.244Z,12.12
2023-05-03T03:50:22.907Z,12.67
2023-05-03T03:52:49.860Z,13.25
2023-05-03T03:55:16.764Z,13.33
2023-05-03T03:57:43.664Z,13.43
2023-05-03T04:00:12.680Z,13.52
2023-05-03T04:02:39.656Z,13.80
2023-05-03T04:05:09.368Z,13.96
2023-05-03T04:07:36.792Z,14.56
2023-05-03T04:10:05.839Z,14.62
2023-05-03T04:12:32.839Z,14.11
2023-05-03T04:15:03.383Z,13.97
2023-05-03T04:17:30.490Z,13.79
2023-05-03T04:19:57.533Z,13.11
2023-05-03T04:22:25.365Z,13.57
2023-05-03T04:24:55.068Z,13.82
2023-05-03T04:27:22.010Z,14.12
2023-05-03T04:29:51.026Z,14.26
2023-05-03T04:32:22.664Z,14.03
2023-05-03T04:34:50.883Z,14.28
2023-05-03T04:37:19.340Z,14.37
2023-05-03T04:39:46.453Z,14.65
2023-05-03T04:42:13.411Z,14.72
2023-05-03T04:44:40.289Z,14.91
2023-05-03T04:47:07.781Z,15.12
2023-05-03T04:49:35.229Z,15.00
2023-05-03T04:52:08.943Z,15.09
2023-05-03T04:54:38.666Z,15.30
2023-05-03T04:57:08.906Z,15.16
2023-05-03T04:59:36.031Z,15.06
2023-05-03T05:02:05.344Z,14.78
2023-05-03T05:04:34.979Z,14.92
2023-05-03T05:07:08.895Z,15.01
2023-05-03T05:09:37.913Z,14.83
2023-05-03T05:12:05.885Z,14.95
2023-05-03T05:17:12.839Z,17.81
2023-05-03T05:19:40.814Z,18.89
2023-05-03T05:22:14.909Z,19.19
2023-05-03T05:24:41.926Z,18.04
2023-05-03T05:27:16.007Z,18.74
2023-05-03T05:29:49.939Z,19.92
2023-05-03T05:32:17.735Z,20.02
2023-05-03T05:34:45.224Z,20.99
2023-05-03T05:37:13.303Z,22.10
2023-05-03T05:39:40.383Z,23.14
2023-05-03T05:42:07.349Z,24.19
2023-05-03T05:44:33.864Z,25.11
2023-05-03T05:47:03.856Z,25.46
2023-05-03T05:49:30.736Z,26.07
2023-05-03T05:51:58.331Z,26.15
2023-05-03T05:54:24.774Z,26.32
2023-05-03T05:56:52.244Z,23.27
2023-05-03T05:59:19.722Z,25.23
2023-05-03T06:01:46.409Z,23.99
2023-05-03T06:04:13.310Z,25.09
2023-05-03T06:06:40.223Z,25.01
2023-05-03T06:09:22.975Z,25.71
2023-05-03T06:11:51.258Z,24.92
2023-05-03T06:14:20.066Z,24.37
2023-05-03T06:16:46.793Z,24.91
2023-05-03T06:19:14.404Z,22.30
2023-05-03T06:21:41.255Z,24.26
2023-05-03T06:24:08.918Z,24.74
2023-05-03T06:26:35.499Z,23.11
2023-05-03T06:29:02.044Z,22.81
2023-05-03T06:31:28.955Z,22.39
2023-05-03T06:33:56.332Z,21.01
2023-05-03T06:36:23.530Z,22.23
2023-05-03T06:38:55.645Z,23.28
2023-05-03T06:41:22.385Z,23.61
2023-05-03T06:43:49.663Z,24.31
2023-05-03T06:46:18.271Z,23.33
2023-05-03T06:48:46.838Z,24.22
2023-05-03T06:51:14.551Z,22.53
2023-05-03T06:53:41.190Z,20.14
2023-05-03T06:56:08.052Z,20.40
2023-05-03T06:58:36.761Z,19.08
2023-05-03T07:01:06.386Z,18.64
2023-05-03T07:03:33.426Z,19.84
2023-05-03T07:06:00.847Z,21.47
2023-05-03T07:08:29.314Z,22.41
2023-05-03T07:10:56.140Z,20.68
2023-05-03T07:13:22.680Z,22.28
2023-05-03T07:15:49.218Z,22.65
2023-05-03T07:18:16.238Z,21.09
2023-05-03T07:20:49.959Z,21.51
2023-05-03T07:23:18.225Z,20.67
2023-05-03T07:25:45.693Z,21.21
2023-05-03T07:28:13.143Z,22.05
2023-05-03T07:30:47.188Z,21.56
2023-05-03T07:33:14.702Z,21.37
2023-05-03T07:35:41.600Z,23.03
2023-05-03T07:38:09.004Z,23.74
2023-05-03T07:40:36.651Z,22.39
2023-05-03T07:43:05.612Z,22.25
2023-05-03T07:45:33.220Z,21.67
2023-05-03T07:47:59.834Z,22.16
2023-05-03T07:50:28.338Z,22.68
2023-05-03T07:52:55.845Z,21.37
2023-05-03T07:55:22.513Z,20.78
2023-05-03T07:57:50.951Z,21.48
2023-05-03T08:00:17.483Z,21.44
2023-05-03T08:02:45.389Z,20.67
2023-05-03T08:05:16.095Z,19.60
2023-05-03T08:07:42.785Z,18.66
2023-05-03T08:10:09.545Z,18.80
2023-05-03T08:12:40.305Z,18.83
2023-05-03T08:15:08.301Z,19.12
2023-05-03T08:17:36.721Z,18.82
2023-05-03T08:20:07.689Z,18.69
2023-05-03T08:22:37.192Z,18.60
2023-05-03T08:25:13.493Z,18.32
2023-05-03T08:27:40.264Z,18.20
2023-05-03T08:30:08.364Z,18.32
2023-05-03T08:32:35.793Z,18.54
2023-05-03T08:35:02.408Z,18.47
2023-05-03T08:37:30.253Z,18.75
2023-05-03T08:39:59.585Z,18.21
2023-05-03T08:42:26.708Z,18.05
2023-05-03T08:44:53.208Z,18.16
2023-05-03T08:47:20.995Z,18.20
2023-05-03T08:49:47.959Z,17.57
2023-05-03T08:52:14.483Z,17.83
2023-05-03T08:54:41.057Z,18.24
2023-05-03T08:57:07.701Z,17.84
2023-05-03T08:59:34.354Z,18.56
2023-05-03T09:02:00.959Z,17.75
2023-05-03T09:04:28.002Z,18.09
2023-05-03T09:06:54.563Z,18.05
2023-05-03T09:09:31.449Z,18.14
2023-05-03T09:11:58.925Z,17.81
2023-05-03T09:14:25.379Z,18.14
2023-05-03T09:16:52.303Z,17.97
2023-05-03T09:19:31.727Z,18.21
2023-05-03T09:21:58.326Z,18.28
2023-05-03T09:24:25.171Z,18.58
2023-05-03T09:26:52.089Z,18.94
2023-05-03T09:29:19.025Z,18.59
2023-05-03T09:31:45.579Z,18.53
2023-05-03T09:34:12.497Z,18.62
2023-05-03T09:36:39.312Z,18.49
2023-05-03T09:39:07.140Z,17.93
2023-05-03T09:41:58.675Z,18.24
2023-05-03T09:44:28.768Z,18.64
2023-05-03T09:46:55.589Z,18.64
2023-05-03T09:49:22.171Z,18.61
2023-05-03T09:51:49.048Z,18.87
2023-05-03T09:54:15.842Z,19.43
2023-05-03T09:56:42.799Z,19.22
2023-05-03T09:59:09.889Z,19.08
2023-05-03T10:01:36.815Z,19.04
2023-05-03T10:04:07.420Z,19.57
2023-05-03T10:06:35.194Z,19.66
2023-05-03T10:09:02.318Z,19.66
2023-05-03T10:11:29.220Z,19.72
2023-05-03T10:13:55.904Z,19.22
2023-05-03T10:16:22.678Z,19.29
2023-05-03T10:18:49.864Z,19.37
2023-05-03T10:21:18.266Z,19.66
2023-05-03T10:23:45.036Z,19.47
2023-05-03T10:26:12.622Z,19.30
2023-05-03T10:28:39.460Z,19.10
2023-05-03T10:31:06.029Z,19.08
2023-05-03T10:33:33.408Z,19.81
2023-05-03T10:36:03.324Z,20.04
2023-05-03T10:38:30.157Z,19.84
2023-05-03T10:40:59.505Z,20.04
2023-05-03T10:43:29.956Z,20.30
2023-05-03T10:45:57.318Z,20.04
2023-05-03T10:48:24.643Z,19.31
2023-05-03T10:50:52.000Z,19.52
2023-05-03T10:53:25.269Z,19.95
2023-05-03T10:55:51.819Z,19.97
2023-05-03T10:58:19.006Z,20.40
2023-05-03T11:00:45.829Z,19.39
2023-05-03T11:03:12.465Z,20.03
2023-05-03T11:05:39.524Z,19.76
2023-05-03T11:08:06.415Z,19.75
2023-05-03T11:10:33.879Z,20.34
2023-05-03T11:13:03.096Z,20.71
2023-05-03T11:15:30.617Z,20.67
2023-05-03T11:20:50.529Z,20.39
2023-05-03T11:23:17.205Z,20.29
2023-05-03T11:25:45.145Z,20.72
2023-05-03T11:28:16.320Z,20.47
2023-05-03T11:30:42.980Z,20.69
2023-05-03T11:33:11.277Z,20.83
2023-05-03T11:35:37.974Z,20.26
2023-05-03T11:38:11.658Z,20.11
2023-05-03T11:40:42.000Z,19.96
2023-05-03T11:43:12.234Z,19.87
2023-05-03T11:45:42.942Z,20.52
2023-05-03T11:48:12.417Z,20.18
2023-05-03T11:50:43.799Z,20.14
2023-05-03T11:53:12.416Z,20.64
2023-05-03T11:55:42.908Z,20.93
2023-05-03T11:58:10.581Z,20.72
2023-05-03T12:00:37.839Z,20.57
2023-05-03T12:03:05.635Z,20.66
2023-05-03T12:05:40.298Z,20.59
2023-05-03T12:08:08.760Z,20.66
2023-05-03T12:10:37.567Z,21.36
2023-05-03T12:13:05.518Z,21.14
2023-05-03T12:15:34.388Z,21.04
2023-05-03T12:23:10.097Z,20.45
2023-05-03T12:25:39.832Z,20.56
2023-05-03T12:30:44.794Z,21.52
2023-05-03T12:33:17.087Z,21.61
2023-05-03T12:35:47.407Z,21.66
2023-05-03T12:38:16.685Z,21.39
2023-05-03T12:40:51.636Z,21.51
2023-05-03T12:43:18.286Z,21.48
2023-05-03T12:45:52.240Z,21.01
2023-05-03T12:48:20.261Z,20.78
2023-05-03T12:50:51.489Z,21.50
2023-05-03T12:55:51.379Z,22.08
2023-05-03T12:58:52.136Z,21.97
2023-05-03T13:03:44.525Z,22.17
2023-05-03T13:06:21.779Z,21.59
2023-05-03T13:08:50.964Z,21.97
2023-05-03T13:11:19.815Z,21.83
2023-05-03T13:13:47.204Z,21.62
2023-05-03T13:16:14.517Z,21.42
2023-05-03T13:18:46.365Z,22.03
2023-05-03T13:21:13.088Z,22.03
2023-05-03T13:23:39.694Z,21.74
2023-05-03T13:26:07.379Z,22.32
2023-05-03T13:28:34.262Z,22.25
2023-05-03T13:31:02.516Z,22.55
2023-05-03T13:33:29.390Z,22.96
2023-05-03T13:35:56.071Z,22.66
2023-05-03T13:38:23.813Z,22.19
2023-05-03T13:40:51.083Z,22.36
2023-05-03T13:43:21.549Z,22.35
2023-05-03T13:45:48.942Z,22.82
2023-05-03T13:48:19.073Z,22.75
2023-05-03T13:50:51.934Z,21.95
2023-05-03T13:53:20.988Z,22.41
2023-05-03T13:55:49.225Z,22.78
2023-05-03T13:58:19.093Z,22.75
2023-05-03T14:00:45.962Z,22.93
2023-05-03T14:03:12.880Z,23.25
2023-05-03T14:05:41.519Z,23.53
2023-05-03T14:08:08.334Z,23.81
2023-05-03T14:10:36.184Z,23.91
2023-05-03T14:13:03.468Z,23.02
2023-05-03T14:15:33.480Z,23.09
2023-05-03T14:18:02.964Z,23.11
2023-05-03T14:20:31.404Z,22.94
2023-05-03T14:22:59.232Z,23.35
2023-05-03T14:25:29.072Z,23.55
2023-05-03T14:27:57.488Z,23.25
2023-05-03T14:30:24.038Z,23.22
2023-05-03T14:32:52.660Z,22.77
2023-05-03T14:35:19.391Z,23.14
2023-05-03T14:37:48.137Z,23.44
2023-05-03T14:40:15.978Z,23.43
2023-05-03T14:42:47.195Z,23.31
2023-05-03T14:45:15.100Z,23.26
2023-05-03T14:47:41.640Z,23.29
2023-05-03T14:50:09.425Z,23.08
2023-05-03T14:52:37.158Z,23.04
2023-05-03T14:55:03.890Z,23.35
2023-05-03T14:57:30.721Z,23.10
2023-05-03T14:59:59.312Z,23.03
2023-05-03T15:02:26.004Z,22.68
2023-05-03T15:04:53.609Z,23.38
2023-05-03T15:07:20.146Z,23.61
2023-05-03T15:09:47.551Z,22.92
2023-05-03T15:12:16.788Z,23.37
2023-05-03T15:14:44.612Z,23.60
2023-05-03T15:17:11.625Z,22.91
2023-05-03T15:19:38.976Z,22.83
2023-05-03T15:22:06.430Z,23.09
2023-05-03T15:24:37.572Z,23.39
2023-05-03T15:27:04.697Z,23.82
2023-05-03T15:29:33.530Z,23.79
2023-05-03T15:32:00.989Z,22.96
2023-05-03T15:34:29.344Z,22.87
2023-05-03T15:36:57.201Z,22.84
2023-05-03T15:39:23.836Z,23.03
2023-05-03T15:41:50.687Z,23.60
2023-05-03T15:44:20.350Z,23.36
2023-05-03T15:46:47.319Z,23.24
2023-05-03T15:49:14.331Z,23.71
2023-05-03T15:51:43.963Z,23.93
2023-05-03T15:57:01.589Z,23.90
2023-05-03T15:59:28.205Z,24.21
2023-05-03T16:01:58.984Z,23.16
2023-05-03T16:04:29.426Z,23.42
2023-05-03T16:07:05.078Z,23.45
2023-05-03T16:09:32.625Z,23.89
2023-05-03T16:11:59.249Z,23.82
2023-05-03T16:14:25.894Z,23.88
2023-05-03T16:16:54.555Z,23.85
2023-05-03T16:19:21.528Z,23.84
2023-05-03T16:21:49.309Z,24.19
2023-05-03T16:24:16.229Z,24.39
2023-05-03T16:26:43.146Z,24.40
2023-05-03T16:29:10.911Z,24.32
2023-05-03T16:31:38.039Z,24.14
2023-05-03T16:34:05.068Z,23.07
2023-05-03T16:36:31.974Z,22.06
2023-05-03T16:39:00.048Z,22.12
2023-05-03T16:41:26.758Z,22.10
2023-05-03T16:43:57.823Z,21.38
2023-05-03T16:46:27.316Z,21.16
2023-05-03T16:48:57.638Z,21.22
2023-05-03T16:51:24.251Z,21.11
2023-05-03T16:53:51.652Z,20.93
2023-05-03T17:02:37.576Z,20.73
2023-05-03T17:05:05.117Z,21.06
2023-05-03T17:10:16.316Z,21.59
2023-05-03T17:12:47.848Z,21.02
2023-05-03T17:15:15.768Z,20.23
2023-05-03T17:17:43.544Z,20.39
2023-05-03T17:20:12.003Z,20.56
2023-05-03T17:22:38.936Z,20.47
2023-05-03T17:25:05.612Z,20.36
2023-05-03T17:27:32.485Z,20.41
2023-05-03T17:30:00.060Z,19.98
2023-05-03T17:32:27.553Z,20.20
2023-05-03T17:34:54.484Z,20.18
2023-05-03T17:37:21.004Z,20.05
2023-05-03T17:39:47.627Z,19.90
2023-05-03T17:42:15.188Z,20.18
2023-05-03T17:44:45.794Z,20.44
2023-05-03T17:47:19.723Z,20.76
2023-05-03T17:49:46.568Z,19.70
2023-05-03T17:52:13.304Z,19.79
2023-05-03T17:54:42.386Z,19.95
2023-05-03T17:57:12.264Z,19.99
2023-05-03T17:59:39.642Z,19.82
2023-05-03T18:02:06.212Z,19.72
2023-05-03T18:04:34.917Z,19.60
2023-05-03T18:07:04.679Z,19.47
2023-05-03T18:09:31.498Z,19.43
2023-05-03T18:11:58.738Z,19.56
2023-05-03T18:14:25.784Z,19.50
2023-05-03T18:16:53.156Z,19.12
2023-05-03T18:19:22.209Z,19.03
2023-05-03T18:21:49.796Z,19.02
2023-05-03T18:24:20.274Z,18.98
2023-05-03T18:26:49.499Z,18.85
2023-05-03T18:29:16.164Z,19.00
2023-05-03T18:31:43.136Z,18.93
2023-05-03T18:34:11.712Z,18.92
2023-05-03T18:36:40.113Z,18.70
2023-05-03T18:39:11.746Z,18.67
2023-05-03T18:41:45.458Z,18.42
2023-05-03T18:44:11.988Z,18.16
2023-05-03T18:49:54.025Z,17.88
2023-05-03T18:52:22.940Z,18.00
2023-05-03T18:54:49.815Z,17.94
2023-05-03T18:57:16.653Z,18.08
2023-05-03T18:59:56.693Z,18.04
2023-05-03T19:02:27.190Z,17.83
2023-05-03T19:04:53.920Z,17.65
2023-05-03T19:07:21.840Z,17.58
2023-05-03T19:09:49.452Z,17.49
2023-05-03T19:12:18.318Z,17.60
2023-05-03T19:14:47.247Z,17.34
2023-05-03T19:17:14.787Z,17.49
2023-05-03T19:19:41.626Z,17.43
2023-05-03T19:22:09.044Z,17.57
2023-05-03T19:24:37.264Z,17.31
2023-05-03T19:27:04.068Z,17.38
2023-05-03T19:29:32.566Z,17.31
2023-05-03T19:32:01.866Z,17.23
2023-05-03T19:34:29.191Z,17.37
2023-05-03T19:36:56.664Z,17.31
2023-05-03T19:39:28.835Z,17.41
2023-05-03T19:41:56.168Z,17.62
2023-05-03T19:44:23.099Z,17.77
2023-05-03T19:46:50.008Z,17.76
2023-05-03T19:49:16.723Z,17.84
2023-05-03T19:51:43.339Z,18.07
2023-05-03T19:54:12.078Z,18.00
2023-05-03T19:56:39.166Z,18.06
2023-05-03T19:59:05.719Z,17.96
2023-05-03T20:01:39.767Z,17.75
2023-05-03T20:04:06.498Z,17.78
2023-05-03T20:06:33.833Z,17.89
2023-05-03T20:09:01.286Z,17.73
2023-05-03T20:11:30.457Z,17.44
2023-05-03T20:13:57.046Z,17.49
2023-05-03T20:16:23.771Z,17.47
2023-05-03T20:18:50.387Z,17.38
2023-05-03T20:21:24.538Z,17.34
2023-05-03T20:23:51.224Z,16.86
2023-05-03T20:26:17.884Z,16.80
2023-05-03T20:28:45.440Z,16.84
2023-05-03T20:31:12.036Z,16.83
2023-05-03T20:33:38.634Z,16.98
2023-05-03T20:36:05.977Z,17.09
2023-05-03T20:38:32.794Z,16.97
2023-05-03T20:40:59.410Z,16.89
2023-05-03T20:43:26.786Z,17.63
2023-05-03T20:45:55.604Z,18.33
2023-05-03T20:48:22.370Z,18.79
2023-05-03T20:50:49.028Z,18.73
2023-05-03T20:53:16.406Z,19.02
2023-05-03T20:55:43.854Z,19.49
2023-05-03T20:58:11.471Z,19.00
2023-05-03T21:00:38.355Z,19.08
2023-05-03T21:03:05.931Z,19.43
2023-05-03T21:05:35.932Z,19.66
2023-05-03T21:08:04.744Z,19.69
2023-05-03T21:10:31.326Z,19.59
2023-05-03T21:13:09.584Z,19.43
2023-05-03T21:15:37.535Z,19.80
2023-05-03T21:18:05.327Z,19.83
2023-05-03T21:20:32.159Z,19.89
2023-05-03T21:22:59.241Z,19.90
2023-05-03T21:25:25.765Z,19.79
2023-05-03T21:28:00.769Z,19.85
2023-05-03T21:33:12.573Z,19.20
2023-05-03T21:35:39.422Z,19.29
2023-05-03T21:38:06.817Z,19.34
2023-05-03T21:40:34.583Z,18.44
2023-05-03T21:43:01.382Z,17.59
2023-05-03T21:45:28.214Z,17.93
2023-05-03T21:47:54.883Z,18.21
2023-05-03T21:50:21.531Z,17.89
2023-05-03T21:52:48.145Z,17.83
2023-05-03T21:55:14.691Z,18.07
2023-05-03T21:57:41.622Z,18.45
2023-05-03T22:00:10.181Z,18.50
2023-05-03T22:02:37.292Z,18.26
2023-05-03T22:05:04.642Z,17.95
2023-05-03T22:07:32.311Z,17.67
2023-05-03T22:09:58.891Z,17.57
2023-05-03T22:12:25.548Z,17.67
2023-05-03T22:14:52.430Z,18.11
2023-05-03T22:17:21.366Z,17.80
2023-05-03T22:19:48.766Z,18.57
2023-05-03T22:25:06.275Z,18.95
2023-05-03T22:27:36.026Z,18.80
2023-05-03T22:30:02.773Z,17.47
2023-05-03T22:32:30.472Z,17.48
2023-05-03T22:34:59.329Z,17.58
2023-05-03T22:37:27.835Z,17.44
2023-05-03T22:39:54.406Z,18.26
2023-05-03T22:42:20.949Z,17.60
2023-05-03T22:44:51.568Z,18.20
2023-05-03T22:47:20.296Z,18.65
2023-05-03T22:49:46.856Z,18.72
2023-05-03T22:52:13.459Z,18.93
2023-05-03T22:54:40.120Z,18.64
2023-05-03T22:57:06.948Z,18.74
2023-05-03T22:59:33.494Z,18.75
2023-05-03T23:02:00.446Z,18.73
2023-05-03T23:04:28.063Z,18.88
2023-05-03T23:06:54.559Z,18.94
2023-05-03T23:09:21.354Z,18.70
2023-05-03T23:11:47.949Z,18.55
2023-05-03T23:14:14.540Z,18.89
2023-05-03T23:16:41.116Z,18.95
2023-05-03T23:19:09.764Z,18.62
2023-05-03T23:21:38.742Z,18.36
2023-05-03T23:24:09.006Z,18.40
2023-05-03T23:26:35.565Z,18.66
2023-05-03T23:29:02.725Z,18.69
2023-05-03T23:31:31.667Z,18.62
2023-05-03T23:34:00.072Z,18.69
2023-05-03T23:36:26.961Z,18.64
2023-05-03T23:38:53.565Z,18.58
2023-05-03T23:41:27.310Z,18.67
2023-05-03T23:43:53.942Z,18.68
2023-05-03T23:46:20.978Z,18.42
2023-05-03T23:48:48.765Z,18.29
2023-05-03T23:51:16.331Z,18.38
2023-05-03T23:53:43.936Z,18.00
2023-05-03T23:56:11.077Z,17.75
2023-05-03T23:58:38.020Z,17.22
